Time;durP1;ratioP1;P1;durP2;ratioP2;P2;SDS_P1;SDS_P2;PMS_P1;PMS_P2;Temp;Humidity;BMP_temperature;BMP_pressure;BME280_temperature;BME280_humidity;BME280_pressure;Samples;Min_cycle;Max_cycle;Signal;HPM_P1;HPM_P2
2021/06/02 00:00:19;;;;;;;0.00;0.00;;;;;;;;;;6233226;23;20322;-78
2021/06/02 00:02:56;;;;;;;0.10;0.10;;;;;;;;;;6181142;23;20085;-79
2021/06/02 00:05:23;;;;;;;0.50;0.50;;;;;;;;;;6236799;23;20008;-79
2021/06/02 00:07:50;;;;;;;1.08;0.70;;;;;;;;;;6210350;23;20130;-78
2021/06/02 00:10:17;;;;;;;0.17;0.17;;;;;;;;;;6237399;23;20039;-79
2021/06/02 00:12:44;;;;;;;0.00;0.00;;;;;;;;;;6237771;23;20012;-79
2021/06/02 00:15:11;;;;;;;0.13;0.13;;;;;;;;;;6237215;23;20004;-79
2021/06/02 00:17:37;;;;;;;;;;;;;;;;;;6211050;23;20102;-78
2021/06/02 00:20:04;;;;;;;0.20;0.20;;;;;;;;;;6236525;23;19915;-79
2021/06/02 00:22:31;;;;;;;0.05;0.05;;;;;;;;;;6211799;23;20016;-79
2021/06/02 00:24:57;;;;;;;5.20;2.03;;;;;;;;;;6236832;23;20013;-78
2021/06/02 00:27:23;;;;;;;0.00;0.00;;;;;;;;;;6211219;23;20099;-79
2021/06/02 00:29:50;;;;;;;0.00;0.00;;;;;;;;;;6209524;23;20008;-78
2021/06/02 00:32:16;;;;;;;0.03;0.03;;;;;;;;;;6187020;23;20012;-79
2021/06/02 00:34:42;;;;;;;0.08;0.08;;;;;;;;;;6212304;23;20246;-79
2021/06/02 00:37:10;;;;;;;0.00;0.00;;;;;;;;;;6211599;23;20083;-79
2021/06/02 00:39:36;;;;;;;;;;;;;;;;;;6239824;23;20630;-78
2021/06/02 00:42:03;;;;;;;0.10;0.10;;;;;;;;;;6213069;23;20343;-79
2021/06/02 00:44:29;;;;;;;0.00;0.00;;;;;;;;;;6210284;23;20091;-79
2021/06/02 00:47:00;;;;;;;0.00;0.00;;;;;;;;;;6238238;23;20008;-79
2021/06/02 00:49:26;;;;;;;0.32;0.32;;;;;;;;;;6212738;23;20812;-79
2021/06/02 00:51:56;;;;;;;0.05;0.05;;;;;;;;;;6211295;23;20091;-78
2021/06/02 00:54:25;;;;;;;0.00;0.00;;;;;;;;;;6212119;23;20008;-79
2021/06/02 00:56:53;;;;;;;0.28;0.28;;;;;;;;;;6209975;23;20360;-79
2021/06/02 00:59:22;;;;;;;0.00;0.00;;;;;;;;;;6209650;23;20015;-78
2021/06/02 01:01:49;;;;;;;0.03;0.03;;;;;;;;;;6208288;23;20149;-79
2021/06/02 01:04:16;;;;;;;0.20;0.20;;;;;;;;;;6212575;23;20440;-79
2021/06/02 01:06:42;;;;;;;;;;;;;;;;;;6239097;23;20008;-78
2021/06/02 01:09:09;;;;;;;0.00;0.00;;;;;;;;;;6212566;23;20224;-79
2021/06/02 01:11:36;;;;;;;0.20;0.20;;;;;;;;;;6238984;23;20019;-79
2021/06/02 01:14:03;;;;;;;0.15;0.15;;;;;;;;;;6236920;23;20791;-79
2021/06/02 01:16:31;;;;;;;8.35;2.00;;;;;;;;;;6211235;23;20015;-79
2021/06/02 01:18:58;;;;;;;0.68;0.47;;;;;;;;;;6237092;23;20011;-79
2021/06/02 01:21:26;;;;;;;0.00;0.00;;;;;;;;;;6212379;23;20019;-79
2021/06/02 01:23:56;;;;;;;0.15;0.15;;;;;;;;;;6209281;23;20026;-79
2021/06/02 01:26:23;;;;;;;0.00;0.00;;;;;;;;;;6237242;23;20441;-78
2021/06/02 01:28:49;;;;;;;;;;;;;;;;;;6187426;23;20071;-79
2021/06/02 01:31:20;;;;;;;0.00;0.00;;;;;;;;;;6237926;23;20252;-78
2021/06/02 01:34:05;;;;;;;0.00;0.00;;;;;;;;;;6210690;23;20035;-78
2021/06/02 01:36:49;;;;;;;0.00;0.00;;;;;;;;;;6240836;23;20008;-79
2021/06/02 01:39:22;;;;;;;0.00;0.00;;;;;;;;;;6237669;23;20004;-79
2021/06/02 01:41:48;;;;;;;0.00;0.00;;;;;;;;;;6209853;23;20510;-79
2021/06/02 01:44:14;;;;;;;0.65;0.65;;;;;;;;;;6211624;23;20225;-79
2021/06/02 01:46:53;;;;;;;0.80;0.40;;;;;;;;;;6211780;23;20345;-79
2021/06/02 01:49:37;;;;;;;0.10;0.10;;;;;;;;;;6238534;23;20004;-79
2021/06/02 01:52:28;;;;;;;0.00;0.00;;;;;;;;;;6237552;23;20044;-78
2021/06/02 01:55:13;;;;;;;0.00;0.00;;;;;;;;;;6211989;23;20023;-79
2021/06/02 01:57:42;;;;;;;0.00;0.00;;;;;;;;;;6209323;23;20008;-78
2021/06/02 02:00:09;;;;;;;0.00;0.00;;;;;;;;;;6236601;23;20015;-79
2021/06/02 02:02:35;;;;;;;;;;;;;;;;;;6239007;23;20512;-79
2021/06/02 02:05:20;;;;;;;0.00;0.00;;;;;;;;;;6237867;23;19907;-79
2021/06/02 02:07:56;;;;;;;0.00;0.00;;;;;;;;;;6208260;23;20012;-79
2021/06/02 02:10:41;;;;;;;0.75;0.75;;;;;;;;;;6237659;23;20337;-78
2021/06/02 02:13:25;;;;;;;0.00;0.00;;;;;;;;;;6210215;23;20008;-79
2021/06/02 02:16:00;;;;;;;0.00;0.00;;;;;;;;;;6212874;23;20008;-79
2021/06/02 02:18:45;;;;;;;0.00;0.00;;;;;;;;;;6236932;23;20501;-78
2021/06/02 02:21:11;;;;;;;2.75;1.98;;;;;;;;;;6211686;23;20040;-79
2021/06/02 02:23:41;;;;;;;0.00;0.00;;;;;;;;;;6210933;23;20008;-79
2021/06/02 02:26:20;;;;;;;0.00;0.00;;;;;;;;;;6240498;23;20369;-78
2021/06/02 02:29:04;;;;;;;0.45;0.30;;;;;;;;;;6239101;23;20008;-79
2021/06/02 02:31:43;;;;;;;0.10;0.10;;;;;;;;;;6212844;23;20015;-78
2021/06/02 02:34:31;;;;;;;0.00;0.00;;;;;;;;;;6210737;23;20031;-79
2021/06/02 02:37:08;;;;;;;0.00;0.00;;;;;;;;;;6237761;22;20008;-79
2021/06/02 02:39:50;;;;;;;1.80;1.40;;;;;;;;;;6211258;23;20008;-79
2021/06/02 02:42:22;;;;;;;0.00;0.00;;;;;;;;;;6211491;23;20008;-78
2021/06/02 02:45:04;;;;;;;0.00;0.00;;;;;;;;;;6210939;23;20007;-79
2021/06/02 02:47:33;;;;;;;2.08;1.50;;;;;;;;;;6210888;23;20012;-79
2021/06/02 02:50:02;;;;;;;0.00;0.00;;;;;;;;;;6235699;23;20075;-78
2021/06/02 02:52:47;;;;;;;0.45;0.45;;;;;;;;;;6237161;23;20008;-79
2021/06/02 02:55:14;;;;;;;0.10;0.10;;;;;;;;;;6211741;23;20461;-78
2021/06/02 02:58:02;;;;;;;0.10;0.10;;;;;;;;;;6210753;23;20018;-79
2021/06/02 03:00:31;;;;;;;0.00;0.00;;;;;;;;;;6214878;23;20012;-79
2021/06/02 03:03:03;;;;;;;0.20;0.20;;;;;;;;;;6239891;23;20012;-79
2021/06/02 03:05:30;;;;;;;0.30;0.30;;;;;;;;;;6213676;23;20008;-79
2021/06/02 03:08:00;;;;;;;0.00;0.00;;;;;;;;;;6238582;23;20477;-79
2021/06/02 03:10:27;;;;;;;0.20;0.20;;;;;;;;;;6213597;23;20138;-79
2021/06/02 03:12:55;;;;;;;;;;;;;;;;;;6213786;23;20045;-79
2021/06/02 03:15:40;;;;;;;0.00;0.00;;;;;;;;;;6212027;23;19908;-79
2021/06/02 03:18:19;;;;;;;4.22;2.00;;;;;;;;;;6213304;23;20078;-79
2021/06/02 03:21:04;;;;;;;0.32;0.25;;;;;;;;;;6211661;23;20047;-79
2021/06/02 03:23:41;;;;;;;0.10;0.10;;;;;;;;;;6213611;23;20048;-79
2021/06/02 03:26:13;;;;;;;0.00;0.00;;;;;;;;;;6239590;23;20038;-78
2021/06/02 03:28:59;;;;;;;0.00;0.00;;;;;;;;;;6240828;23;20066;-78
2021/06/02 03:31:43;;;;;;;0.00;0.00;;;;;;;;;;6211730;23;20096;-78
2021/06/02 03:34:19;;;;;;;4.15;0.70;;;;;;;;;;6210710;23;20377;-79
2021/06/02 03:37:04;;;;;;;0.68;0.30;;;;;;;;;;6211840;22;20138;-79
2021/06/02 03:39:42;;;;;;;3.30;2.28;;;;;;;;;;6240591;23;20011;-79
2021/06/02 03:42:08;;;;;;;0.32;0.32;;;;;;;;;;6240341;23;20035;-79
2021/06/02 03:44:54;;;;;;;0.20;0.20;;;;;;;;;;6240049;23;20004;-79
2021/06/02 03:47:33;;;;;;;0.43;0.43;;;;;;;;;;6212775;23;20008;-79
2021/06/02 03:50:08;;;;;;;1.27;0.32;;;;;;;;;;6236958;23;20081;-79
2021/06/02 03:52:54;;;;;;;1.00;0.60;;;;;;;;;;6238820;23;20011;-79
2021/06/02 03:55:36;;;;;;;0.00;0.00;;;;;;;;;;6222909;23;20366;-79
2021/06/02 03:58:08;;;;;;;0.50;0.50;;;;;;;;;;6238224;23;20050;-79
2021/06/02 04:00:41;;;;;;;4.80;0.85;;;;;;;;;;6210506;23;20142;-79
2021/06/02 04:03:12;;;;;;;3.13;1.27;;;;;;;;;;6209481;23;20087;-79
2021/06/02 04:05:51;;;;;;;0.30;0.30;;;;;;;;;;6211940;23;20016;-79
2021/06/02 04:08:17;;;;;;;0.75;0.28;;;;;;;;;;6240062;23;20091;-79
2021/06/02 04:10:57;;;;;;;0.05;0.05;;;;;;;;;;6209356;23;20082;-79
2021/06/02 04:13:30;;;;;;;13.05;1.20;;;;;;;;;;6241019;23;20389;-79
2021/06/02 04:16:01;;;;;;;0.00;0.00;;;;;;;;;;6238328;23;20011;-79
2021/06/02 04:18:30;;;;;;;0.20;0.20;;;;;;;;;;6241100;23;20005;-78
2021/06/02 04:20:57;;;;;;;0.10;0.10;;;;;;;;;;6237739;23;20319;-79
2021/06/02 04:23:23;;;;;;;;;;;;;;;;;;6213581;23;20016;-79
2021/06/02 04:25:51;;;;;;;0.00;0.00;;;;;;;;;;6237903;23;19910;-79
2021/06/02 04:28:18;;;;;;;0.30;0.30;;;;;;;;;;6213938;23;20016;-79
2021/06/02 04:30:49;;;;;;;0.10;0.10;;;;;;;;;;6237085;23;20019;-79
2021/06/02 04:33:17;;;;;;;0.95;0.63;;;;;;;;;;6239596;23;20004;-79
2021/06/02 04:35:44;;;;;;;0.73;0.60;;;;;;;;;;6212104;23;20377;-79
2021/06/02 04:38:11;;;;;;;0.00;0.00;;;;;;;;;;6212690;23;20023;-79
2021/06/02 04:40:40;;;;;;;0.13;0.10;;;;;;;;;;6241652;23;20013;-79
2021/06/02 04:43:06;;;;;;;0.00;0.00;;;;;;;;;;6238782;23;20047;-79
2021/06/02 04:45:36;;;;;;;0.20;0.20;;;;;;;;;;6215322;23;20015;-80
2021/06/02 04:48:02;;;;;;;0.20;0.20;;;;;;;;;;6213511;23;20066;-80
2021/06/02 04:50:38;;;;;;;0.10;0.10;;;;;;;;;;6214882;23;20012;-80
2021/06/02 04:53:04;;;;;;;0.25;0.25;;;;;;;;;;6239549;23;20317;-80
2021/06/02 04:55:30;;;;;;;0.10;0.10;;;;;;;;;;6239518;23;20000;-80
2021/06/02 04:58:03;;;;;;;0.35;0.30;;;;;;;;;;6213257;23;20016;-80
2021/06/02 05:00:50;;;;;;;0.13;0.13;;;;;;;;;;6213377;23;20012;-80
2021/06/02 05:03:35;;;;;;;0.00;0.00;;;;;;;;;;6240461;23;20012;-80
2021/06/02 05:06:30;;;;;;;0.20;0.20;;;;;;;;;;6238867;23;20012;-81
2021/06/02 05:09:02;;;;;;;3.85;2.03;;;;;;;;;;6241159;23;20038;-81
2021/06/02 05:11:47;;;;;;;14.15;0.32;;;;;;;;;;6241195;23;20012;-80
2021/06/02 05:14:32;;;;;;;0.10;0.10;;;;;;;;;;6238977;23;20008;-80
2021/06/02 05:17:04;;;;;;;0.30;0.25;;;;;;;;;;6211046;23;20004;-81
2021/06/02 05:22:24;;;;;;;0.77;0.32;;;;;;;;;;6239725;23;20446;-80
2021/06/02 05:24:53;;;;;;;0.45;0.22;;;;;;;;;;6211711;23;20008;-80
2021/06/02 05:27:38;;;;;;;0.10;0.00;;;;;;;;;;6213681;23;20016;-80
2021/06/02 05:30:19;;;;;;;0.38;0.35;;;;;;;;;;6238753;23;20015;-81
2021/06/02 05:33:00;;;;;;;0.20;0.15;;;;;;;;;;6238726;23;20414;-81
2021/06/02 05:35:45;;;;;;;0.20;0.20;;;;;;;;;;6241702;23;20351;-80
2021/06/02 05:38:30;;;;;;;0.10;0.00;;;;;;;;;;6241181;22;20042;-80
2021/06/02 05:41:16;;;;;;;1.98;1.08;;;;;;;;;;6212414;23;20019;-81
2021/06/02 05:44:01;;;;;;;0.00;0.00;;;;;;;;;;6240969;23;20015;-81
2021/06/02 05:46:57;;;;;;;0.20;0.13;;;;;;;;;;6241263;23;20434;-81
2021/06/02 05:49:29;;;;;;;0.10;0.10;;;;;;;;;;6241327;23;20402;-81
2021/06/02 05:52:00;;;;;;;0.10;0.10;;;;;;;;;;6238670;23;20370;-81
2021/06/02 05:54:45;;;;;;;0.03;0.00;;;;;;;;;;6214367;23;20053;-81
2021/06/02 05:57:49;;;;;;;0.20;0.20;;;;;;;;;;6239046;23;20011;-81
2021/06/02 06:00:16;;;;;;;0.00;0.00;;;;;;;;;;6122489;23;20068;-81
2021/06/02 06:02:45;;;;;;;;;;;;;;;;;;6123896;23;20009;-81
2021/06/02 06:05:30;;;;;;;0.10;0.10;;;;;;;;;;6194130;23;19950;-81
2021/06/02 06:08:16;;;;;;;0.45;0.20;;;;;;;;;;6212345;23;20008;-81
2021/06/02 06:11:17;;;;;;;0.10;0.00;;;;;;;;;;6238908;23;20083;-81
2021/06/02 06:13:44;;;;;;;0.20;0.20;;;;;;;;;;6240043;23;20008;-81
2021/06/02 06:16:24;;;;;;;0.52;0.20;;;;;;;;;;6241573;23;20011;-81
2021/06/02 06:19:06;;;;;;;0.00;0.00;;;;;;;;;;6208427;23;20015;-81
2021/06/02 06:21:51;;;;;;;0.20;0.20;;;;;;;;;;6213764;23;20044;-80
2021/06/02 06:24:37;;;;;;;0.00;0.00;;;;;;;;;;6212711;23;20511;-81
2021/06/02 06:27:08;;;;;;;0.40;0.20;;;;;;;;;;6198346;23;20016;-81
2021/06/02 06:29:38;;;;;;;0.00;0.00;;;;;;;;;;6213516;23;20391;-81
2021/06/02 06:32:07;;;;;;;0.05;0.05;;;;;;;;;;6240026;23;20018;-81
2021/06/02 06:34:34;;;;;;;0.30;0.20;;;;;;;;;;6238651;23;20061;-81
2021/06/02 06:37:01;;;;;;;0.20;0.20;;;;;;;;;;6238308;22;20504;-81
2021/06/02 06:39:50;;;;;;;0.85;0.55;;;;;;;;;;6240282;23;20123;-82
2021/06/02 06:42:22;;;;;;;0.20;0.20;;;;;;;;;;6226494;23;20019;-81
2021/06/02 06:44:51;;;;;;;0.30;0.30;;;;;;;;;;6212280;23;20032;-82
2021/06/02 06:47:18;;;;;;;0.88;0.82;;;;;;;;;;6239913;23;20011;-81
2021/06/02 06:49:47;;;;;;;0.10;0.10;;;;;;;;;;6212295;23;20016;-81
2021/06/02 06:52:14;;;;;;;0.52;0.43;;;;;;;;;;6238713;23;20007;-81
2021/06/02 06:54:40;;;;;;;;;;;;;;;;;;6213946;23;20012;-81
2021/06/02 06:57:07;;;;;;;0.85;0.50;;;;;;;;;;6212380;23;19974;-81
2021/06/02 06:59:33;;;;;;;;;;;;;;;;;;6214474;23;20008;-80
2021/06/02 07:02:00;;;;;;;0.55;0.20;;;;;;;;;;6238984;23;19910;-80
2021/06/02 07:04:28;;;;;;;0.32;0.22;;;;;;;;;;6187844;23;20020;-80
2021/06/02 07:06:54;;;;;;;0.30;0.20;;;;;;;;;;6212691;23;20142;-79
2021/06/02 07:09:22;;;;;;;0.32;0.32;;;;;;;;;;6188061;23;20016;-83
2021/06/02 07:11:49;;;;;;;0.57;0.38;;;;;;;;;;6187801;23;20361;-80
2021/06/02 07:14:15;;;;;;;;;;;;;;;;;;6240997;23;20012;-84
2021/06/02 07:16:41;;;;;;;0.30;0.20;;;;;;;;;;6212759;23;19942;-81
2021/06/02 07:19:08;;;;;;;1.35;0.90;;;;;;;;;;6238501;23;20032;-82
2021/06/02 07:21:37;;;;;;;0.85;0.43;;;;;;;;;;6239278;23;20012;-82
2021/06/02 07:24:04;;;;;;;1.73;0.40;;;;;;;;;;6239428;23;20325;-81
2021/06/02 07:26:30;;;;;;;1.30;0.40;;;;;;;;;;6212749;23;20012;-82
2021/06/02 07:28:57;;;;;;;1.45;0.75;;;;;;;;;;6212426;23;20336;-83
2021/06/02 07:31:24;;;;;;;0.00;0.00;;;;;;;;;;6211780;23;20020;-90
2021/06/02 07:33:50;;;;;;;0.20;0.10;;;;;;;;;;6210225;23;20038;-90
2021/06/02 07:36:16;;;;;;;13.13;0.70;;;;;;;;;;6213206;23;20016;-90
2021/06/02 07:38:43;;;;;;;0.20;0.20;;;;;;;;;;6190271;23;20016;-89
2021/06/02 07:41:10;;;;;;;0.10;0.00;;;;;;;;;;6215812;23;20428;-87
2021/06/02 07:43:36;;;;;;;1.83;1.05;;;;;;;;;;6218302;23;20282;-88
2021/06/02 07:46:02;;;;;;;0.05;0.05;;;;;;;;;;6242314;23;20012;-90
2021/06/02 07:48:29;;;;;;;0.10;0.10;;;;;;;;;;6244367;23;20077;-90
2021/06/02 07:50:56;;;;;;;;;;;;;;;;;;6215388;23;20071;-88
2021/06/02 07:53:22;;;;;;;0.60;0.22;;;;;;;;;;6215472;23;19942;-87
2021/06/02 07:55:49;;;;;;;0.52;0.38;;;;;;;;;;6213687;23;20034;-91
2021/06/02 07:58:15;;;;;;;0.50;0.50;;;;;;;;;;6244011;23;20405;-91
2021/06/02 08:00:41;;;;;;;0.45;0.22;;;;;;;;;;6218463;23;20138;-86
2021/06/02 08:03:08;;;;;;;1.57;0.70;;;;;;;;;;6217102;23;20087;-83
2021/06/02 08:05:35;;;;;;;0.60;0.38;;;;;;;;;;6192696;23;20099;-86
2021/06/02 08:08:01;;;;;;;0.13;0.13;;;;;;;;;;6216962;23;20051;-85
2021/06/02 08:10:28;;;;;;;0.53;0.53;;;;;;;;;;6216065;23;20446;-87
2021/06/02 08:12:54;;;;;;;4.15;0.28;;;;;;;;;;6245185;23;20238;-85
2021/06/02 08:15:21;;;;;;;1.00;0.98;;;;;;;;;;6217862;23;20009;-88
2021/06/02 08:17:48;;;;;;;0.43;0.43;;;;;;;;;;6217315;23;20062;-83
2021/06/02 08:20:15;;;;;;;0.35;0.30;;;;;;;;;;6245754;23;20027;-87
2021/06/02 08:22:42;;;;;;;;;;;;;;;;;;6193852;23;20093;-83
2021/06/02 08:25:10;;;;;;;0.00;0.00;;;;;;;;;;6217620;23;19911;-87
2021/06/02 08:27:39;;;;;;;0.50;0.25;;;;;;;;;;6243574;23;20004;-86
2021/06/02 08:30:06;;;;;;;0.82;0.38;;;;;;;;;;6193032;23;20019;-87
2021/06/02 08:32:32;;;;;;;1.33;0.63;;;;;;;;;;6244776;23;20363;-87
2021/06/02 08:34:59;;;;;;;0.45;0.43;;;;;;;;;;6217893;23;20008;-87
2021/06/02 08:37:25;;;;;;;0.20;0.17;;;;;;;;;;6192654;23;20476;-88
2021/06/02 08:39:52;;;;;;;0.45;0.30;;;;;;;;;;6242084;23;20434;-87
2021/06/02 08:42:19;;;;;;;0.15;0.03;;;;;;;;;;6243467;23;20066;-86
2021/06/02 08:44:46;;;;;;;0.20;0.10;;;;;;;;;;6216753;23;20020;-87
2021/06/02 08:47:12;;;;;;;0.40;0.25;;;;;;;;;;6192577;23;20023;-87
2021/06/02 08:49:39;;;;;;;0.55;0.05;;;;;;;;;;6217769;23;20031;-87
2021/06/02 08:52:06;;;;;;;8.30;2.10;;;;;;;;;;6188348;23;20071;-86
2021/06/02 08:54:33;;;;;;;0.30;0.15;;;;;;;;;;6242396;23;20079;-87
2021/06/02 08:57:07;;;;;;;0.10;0.10;;;;;;;;;;6241482;23;20439;-88
2021/06/02 08:59:33;;;;;;;0.57;0.40;;;;;;;;;;6241653;23;20031;-87
2021/06/02 09:02:00;;;;;;;0.43;0.43;;;;;;;;;;6213121;23;20492;-88
2021/06/02 09:04:27;;;;;;;0.10;0.10;;;;;;;;;;6214264;23;20509;-86
2021/06/02 09:06:53;;;;;;;;;;;;;;;;;;6239481;23;20019;-84
2021/06/02 09:09:20;;;;;;;0.40;0.40;;;;;;;;;;6213956;23;19907;-83
2021/06/02 09:11:47;;;;;;;0.10;0.10;;;;;;;;;;6183657;23;20091;-86
2021/06/02 09:14:27;;;;;;;0.60;0.60;;;;;;;;;;6209876;23;20004;-86
2021/06/02 09:16:55;;;;;;;3.78;0.68;;;;;;;;;;6182751;23;20012;-85
2021/06/02 09:19:33;;;;;;;0.00;0.00;;;;;;;;;;6211305;23;20080;-89
2021/06/02 09:22:00;;;;;;;0.70;0.20;;;;;;;;;;6158662;23;20074;-87
2021/06/02 09:24:45;;;;;;;0.20;0.20;;;;;;;;;;6184793;23;20020;-87
2021/06/02 09:27:12;;;;;;;0.35;0.35;;;;;;;;;;6212985;23;20012;-87
2021/06/02 09:29:55;;;;;;;0.63;0.43;;;;;;;;;;6161824;23;20024;-88
2021/06/02 09:32:22;;;;;;;0.10;0.10;;;;;;;;;;6185264;23;20015;-88
2021/06/02 09:34:48;;;;;;;0.57;0.45;;;;;;;;;;6184752;23;20009;-88
2021/06/02 09:37:15;;;;;;;1.27;0.15;;;;;;;;;;6210323;23;20031;-88
2021/06/02 09:39:43;;;;;;;0.75;0.55;;;;;;;;;;6186513;23;20008;-87
2021/06/02 09:42:17;;;;;;;0.20;0.10;;;;;;;;;;6211715;23;20004;-86
2021/06/02 09:44:44;;;;;;;0.25;0.13;;;;;;;;;;6182782;23;20073;-88
2021/06/02 09:47:11;;;;;;;0.10;0.10;;;;;;;;;;6184037;23;20017;-87
2021/06/02 09:49:47;;;;;;;0.10;0.10;;;;;;;;;;6211391;23;20012;-87
2021/06/02 09:52:14;;;;;;;0.38;0.38;;;;;;;;;;6210134;23;20457;-87
2021/06/02 09:54:41;;;;;;;0.22;0.20;;;;;;;;;;6209823;23;20011;-87
2021/06/02 09:57:07;;;;;;;;;;;;;;;;;;6183314;23;20009;-87
2021/06/02 09:59:33;;;;;;;0.30;0.20;;;;;;;;;;6210621;23;19907;-84
2021/06/02 10:02:01;;;;;;;0.77;0.75;;;;;;;;;;6208125;23;20008;-85
2021/06/02 10:04:33;;;;;;;0.10;0.10;;;;;;;;;;6206142;23;20009;-86
2021/06/02 10:07:00;;;;;;;0.60;0.60;;;;;;;;;;6209118;23;20009;-86
2021/06/02 10:09:26;;;;;;;0.63;0.63;;;;;;;;;;6157505;23;20101;-86
2021/06/02 10:12:11;;;;;;;0.10;0.00;;;;;;;;;;6212154;23;20024;-86
2021/06/02 10:14:41;;;;;;;1.08;0.50;;;;;;;;;;6236695;23;20075;-88
2021/06/02 10:17:28;;;;;;;0.30;0.30;;;;;;;;;;6207974;23;20142;-87
2021/06/02 10:19:55;;;;;;;0.20;0.20;;;;;;;;;;6234358;23;20004;-88
2021/06/02 10:22:31;;;;;;;0.65;0.52;;;;;;;;;;6208892;23;20066;-86
2021/06/02 10:25:01;;;;;;;0.22;0.20;;;;;;;;;;6234982;23;20154;-87
2021/06/02 10:27:27;;;;;;;0.40;0.10;;;;;;;;;;6211086;23;20497;-87
2021/06/02 10:29:54;;;;;;;0.40;0.35;;;;;;;;;;6208629;23;20015;-87
2021/06/02 10:32:22;;;;;;;2.28;1.10;;;;;;;;;;6183325;23;20016;-86
2021/06/02 10:34:51;;;;;;;1.13;0.95;;;;;;;;;;6205980;23;20008;-86
2021/06/02 10:37:18;;;;;;;0.20;0.20;;;;;;;;;;6211833;23;20081;-87
2021/06/02 10:39:55;;;;;;;0.10;0.10;;;;;;;;;;6185230;23;20016;-87
2021/06/02 10:42:28;;;;;;;0.13;0.10;;;;;;;;;;6237949;23;20429;-87
2021/06/02 10:44:58;;;;;;;0.20;0.20;;;;;;;;;;6235641;23;20471;-87
2021/06/02 10:47:28;;;;;;;0.40;0.40;;;;;;;;;;6237613;23;20074;-86
2021/06/02 10:49:54;;;;;;;0.50;0.28;;;;;;;;;;6234678;23;20047;-85
2021/06/02 10:52:37;;;;;;;0.20;0.20;;;;;;;;;;6207676;23;20504;-85
2021/06/02 10:55:22;;;;;;;0.88;0.55;;;;;;;;;;6205141;23;20406;-85
2021/06/02 10:58:12;;;;;;;0.20;0.13;;;;;;;;;;6205601;23;20035;-85
2021/06/02 11:00:38;;;;;;;0.05;0.05;;;;;;;;;;6194657;23;20018;-84
2021/06/02 11:03:25;;;;;;;0.25;0.17;;;;;;;;;;6205894;23;20433;-83
2021/06/02 11:06:06;;;;;;;26.05;0.70;;;;;;;;;;6235364;23;20346;-83
2021/06/02 11:08:48;;;;;;;0.60;0.45;;;;;;;;;;6240052;23;20079;-87
2021/06/02 11:11:21;;;;;;;0.57;0.32;;;;;;;;;;6212243;23;20023;-84
2021/06/02 11:14:06;;;;;;;0.40;0.32;;;;;;;;;;6240689;23;20499;-88
2021/06/02 11:16:39;;;;;;;1.17;0.57;;;;;;;;;;6242195;23;20337;-86
2021/06/02 11:19:22;;;;;;;0.22;0.10;;;;;;;;;;6239630;23;20031;-86
2021/06/02 11:21:57;;;;;;;0.10;0.10;;;;;;;;;;6208931;23;20016;-81
2021/06/02 11:24:32;;;;;;;0.20;0.20;;;;;;;;;;6237668;23;20008;-85
2021/06/02 11:27:19;;;;;;;0.00;0.00;;;;;;;;;;6235679;23;20417;-84
2021/06/02 11:29:45;;;;;;;0.20;0.10;;;;;;;;;;6196234;23;20012;-84
2021/06/02 11:32:26;;;;;;;0.20;0.20;;;;;;;;;;6209560;23;20341;-83
2021/06/02 11:34:52;;;;;;;0.38;0.38;;;;;;;;;;6237319;23;20022;-83
2021/06/02 11:37:23;;;;;;;0.70;0.30;;;;;;;;;;6236610;22;20004;-80
2021/06/02 11:39:53;;;;;;;0.38;0.38;;;;;;;;;;6238989;23;20035;-80
2021/06/02 11:42:40;;;;;;;0.15;0.15;;;;;;;;;;6213081;23;20016;-78
2021/06/02 11:45:09;;;;;;;0.10;0.10;;;;;;;;;;6230841;23;20039;-82
2021/06/02 11:47:38;;;;;;;0.17;0.10;;;;;;;;;;6181849;23;20201;-81
2021/06/02 11:50:09;;;;;;;0.05;0.03;;;;;;;;;;6206340;23;20388;-79
2021/06/02 11:52:36;;;;;;;0.57;0.32;;;;;;;;;;6235174;23;20008;-78
2021/06/02 11:55:09;;;;;;;0.20;0.20;;;;;;;;;;6185934;23;20012;-79
2021/06/02 11:57:43;;;;;;;0.15;0.15;;;;;;;;;;6211231;23;20004;-79
2021/06/02 12:00:11;;;;;;;0.10;0.03;;;;;;;;;;6236552;23;20071;-81
2021/06/02 12:02:38;;;;;;;0.05;0.05;;;;;;;;;;6211594;23;20008;-81
2021/06/02 12:05:14;;;;;;;0.38;0.30;;;;;;;;;;6180525;23;20339;-79
2021/06/02 12:07:44;;;;;;;0.25;0.25;;;;;;;;;;6208957;23;20434;-79
2021/06/02 12:10:12;;;;;;;0.65;0.32;;;;;;;;;;6235311;23;20015;-79
2021/06/02 12:12:42;;;;;;;1.50;0.85;;;;;;;;;;6235913;23;20004;-81
2021/06/02 12:15:13;;;;;;;0.25;0.17;;;;;;;;;;6236634;23;20004;-81
2021/06/02 12:17:41;;;;;;;7.72;1.58;;;;;;;;;;6234240;23;20082;-80
2021/06/02 12:20:15;;;;;;;0.20;0.10;;;;;;;;;;6233232;23;20004;-80
2021/06/02 12:22:43;;;;;;;1.13;0.38;;;;;;;;;;6207282;23;20091;-79
2021/06/02 12:25:19;;;;;;;0.95;0.63;;;;;;;;;;6206393;23;20035;-79
2021/06/02 12:27:51;;;;;;;0.35;0.30;;;;;;;;;;6206739;23;20649;-79
2021/06/02 12:30:19;;;;;;;0.45;0.40;;;;;;;;;;6206279;23;20008;-79
2021/06/02 12:32:51;;;;;;;0.47;0.45;;;;;;;;;;6236993;23;20096;-83
2021/06/02 12:35:28;;;;;;;0.20;0.20;;;;;;;;;;6182514;23;20424;-80
2021/06/02 12:37:56;;;;;;;;;;;;;;;;;;6235106;22;20433;-80
2021/06/02 12:40:22;;;;;;;4.45;0.45;;;;;;;;;;6236637;23;19915;-79
2021/06/02 12:42:50;;;;;;;0.05;0.03;;;;;;;;;;6184554;23;20082;-87
2021/06/02 12:45:26;;;;;;;2.58;1.52;;;;;;;;;;6209852;23;20004;-85
2021/06/02 12:47:53;;;;;;;0.13;0.10;;;;;;;;;;6209939;23;20005;-85
2021/06/02 12:50:35;;;;;;;0.32;0.30;;;;;;;;;;6210694;23;20058;-86
2021/06/02 12:53:03;;;;;;;1.48;0.80;;;;;;;;;;6212607;23;20083;-86
2021/06/02 12:55:32;;;;;;;0.25;0.25;;;;;;;;;;6212952;23;20008;-89
2021/06/02 12:58:06;;;;;;;0.80;0.35;;;;;;;;;;6212599;23;20008;-86
2021/06/02 13:00:34;;;;;;;0.10;0.10;;;;;;;;;;6213249;23;20008;-90
2021/06/02 13:03:01;;;;;;;0.20;0.10;;;;;;;;;;6214134;23;20016;-90
2021/06/02 13:05:29;;;;;;;4.90;0.70;;;;;;;;;;6212214;23;20346;-90
2021/06/02 13:08:06;;;;;;;0.70;0.68;;;;;;;;;;6212426;23;20016;-89
2021/06/02 13:10:34;;;;;;;1.80;1.13;;;;;;;;;;6202507;23;20055;-89
2021/06/02 13:13:01;;;;;;;0.00;0.00;;;;;;;;;;6185322;23;20710;-88
2021/06/02 13:15:30;;;;;;;0.77;0.30;;;;;;;;;;6186775;23;20032;-89
2021/06/02 13:17:57;;;;;;;0.00;0.00;;;;;;;;;;6209984;23;20009;-89
2021/06/02 13:20:40;;;;;;;0.30;0.30;;;;;;;;;;6185851;23;20083;-89
2021/06/02 13:23:17;;;;;;;25.75;0.47;;;;;;;;;;6212745;23;20007;-89
2021/06/02 13:25:45;;;;;;;;;;;;;;;;;;6185258;23;20383;-89
2021/06/02 13:28:12;;;;;;;0.33;0.30;;;;;;;;;;6185886;23;19990;-89
2021/06/02 13:30:38;;;;;;;;;;;;;;;;;;6211059;23;20015;-89
2021/06/02 13:33:06;;;;;;;0.55;0.15;;;;;;;;;;6184878;23;19911;-89
2021/06/02 13:35:33;;;;;;;0.20;0.20;;;;;;;;;;6181642;23;20009;-88
2021/06/02 13:37:59;;;;;;;0.00;0.00;;;;;;;;;;6180433;23;20106;-89
2021/06/02 13:40:33;;;;;;;1.65;0.90;;;;;;;;;;6181407;23;20012;-88
2021/06/02 13:43:02;;;;;;;0.00;0.00;;;;;;;;;;6181701;23;20012;-88
2021/06/02 13:45:38;;;;;;;1.65;0.40;;;;;;;;;;6181208;23;20389;-88
2021/06/02 13:48:41;;;;;;;5.47;0.75;;;;;;;;;;6182366;23;20334;-88
2021/06/02 13:51:12;;;;;;;1.02;0.70;;;;;;;;;;6122386;23;20056;-88
2021/06/02 13:53:57;;;;;;;0.30;0.20;;;;;;;;;;6198476;23;20059;-88
2021/06/02 13:56:23;;;;;;;0.25;0.15;;;;;;;;;;6210143;23;20012;-88
2021/06/02 13:59:08;;;;;;;2.13;0.67;;;;;;;;;;6183151;23;20012;-88
2021/06/02 14:01:35;;;;;;;0.10;0.08;;;;;;;;;;6208909;23;20084;-88
2021/06/02 14:04:03;;;;;;;0.38;0.32;;;;;;;;;;6182146;23;20450;-88
2021/06/02 14:06:29;;;;;;;0.47;0.20;;;;;;;;;;6183564;23;20400;-88
2021/06/02 14:08:55;;;;;;;0.45;0.45;;;;;;;;;;6209435;23;20004;-87
2021/06/02 14:11:26;;;;;;;0.30;0.20;;;;;;;;;;6202451;23;20407;-87
2021/06/02 14:13:53;;;;;;;0.30;0.10;;;;;;;;;;6209270;23;20004;-88
2021/06/02 14:16:22;;;;;;;0.43;0.10;;;;;;;;;;6182564;23;20019;-87
2021/06/02 14:18:58;;;;;;;0.43;0.20;;;;;;;;;;6182083;23;20350;-87
2021/06/02 14:21:28;;;;;;;2.95;1.55;;;;;;;;;;6184788;23;20012;-88
2021/06/02 14:23:54;;;;;;;0.10;0.05;;;;;;;;;;6209132;23;20039;-88
2021/06/02 14:26:21;;;;;;;0.10;0.10;;;;;;;;;;6211573;23;20079;-87
2021/06/02 14:28:47;;;;;;;2.08;1.20;;;;;;;;;;6209374;23;20016;-87
2021/06/02 14:31:14;;;;;;;0.10;0.10;;;;;;;;;;6210013;23;20008;-86
2021/06/02 14:33:40;;;;;;;1.15;0.10;;;;;;;;;;6208976;23;20035;-87
2021/06/02 14:36:06;;;;;;;0.43;0.20;;;;;;;;;;6208796;23;20011;-87
2021/06/02 14:38:35;;;;;;;2.47;0.75;;;;;;;;;;6183719;23;20011;-88
2021/06/02 14:41:01;;;;;;;1.13;0.25;;;;;;;;;;6181060;23;20012;-87
2021/06/02 14:43:29;;;;;;;0.00;0.00;;;;;;;;;;6155561;23;20020;-87
2021/06/02 14:45:56;;;;;;;0.22;0.20;;;;;;;;;;6155591;23;20023;-88
2021/06/02 14:48:23;;;;;;;0.77;0.77;;;;;;;;;;6182567;23;20083;-87
2021/06/02 14:50:50;;;;;;;0.20;0.20;;;;;;;;;;6180164;23;20095;-87
2021/06/02 14:53:17;;;;;;;0.35;0.25;;;;;;;;;;6210158;23;20008;-88
2021/06/02 14:55:43;;;;;;;;;;;;;;;;;;6209833;23;20076;-87
2021/06/02 14:58:09;;;;;;;0.05;0.00;;;;;;;;;;6182500;23;20233;-87
2021/06/02 15:00:36;;;;;;;0.55;0.40;;;;;;;;;;6181986;23;20016;-87
2021/06/02 15:03:03;;;;;;;57.30;1.60;;;;;;;;;;6182082;23;20446;-88
2021/06/02 15:05:33;;;;;;;0.43;0.13;;;;;;;;;;6211358;23;20440;-87
2021/06/02 15:08:00;;;;;;;0.00;0.00;;;;;;;;;;6159473;23;20031;-83
2021/06/02 15:10:27;;;;;;;0.10;0.10;;;;;;;;;;6186134;23;20019;-88
2021/06/02 15:12:54;;;;;;;0.10;0.10;;;;;;;;;;6182788;23;20434;-87
2021/06/02 15:15:23;;;;;;;0.00;0.00;;;;;;;;;;6186424;23;20012;-88
2021/06/02 15:17:49;;;;;;;0.22;0.20;;;;;;;;;;6182324;23;20031;-88